Time;durP1;ratioP1;P1;durP2;ratioP2;P2;SDS_P1;SDS_P2;PMS_P1;PMS_P2;Temp;Humidity;BMP_temperature;BMP_pressure;BME280_temperature;BME280_humidity;BME280_pressure;Samples;Min_cycle;Max_cycle;Signal;HPM_P1;HPM_P2
2023/03/20 00:01:44;;;;;;;46.00;19.80;;;;;;;-128.00;-1.00;-1.00;18866;288;7504633;-30
2023/03/20 00:04:11;;;;;;;31.70;16.70;;;;;;;-128.00;-1.00;-1.00;18862;296;7504455;-36
2023/03/20 00:06:37;;;;;;;29.80;16.40;;;;;;;-128.00;-1.00;-1.00;18472;284;7504504;-30
2023/03/20 00:09:03;;;;;;;33.00;16.70;;;;;;;-128.00;-1.00;-1.00;18469;332;7504638;-29
2023/03/20 00:11:31;;;;;;;36.50;15.10;;;;;;;-128.00;-1.00;-1.00;18481;296;7505019;-34
2023/03/20 00:14:02;;;;;;;32.50;14.20;;;;;;;-128.00;-1.00;-1.00;18455;296;7507862;-34
2023/03/20 00:16:36;;;;;;;42.70;16.30;;;;;;;-128.00;-1.00;-1.00;18467;296;7505340;-34
2023/03/20 00:19:02;;;;;;;26.60;14.70;;;;;;;-128.00;-1.00;-1.00;18495;296;7504436;-33
2023/03/20 00:21:29;;;;;;;27.60;13.10;;;;;;;-128.00;-1.00;-1.00;18462;298;7507094;-31
2023/03/20 00:23:55;;;;;;;33.70;15.60;;;;;;;-128.00;-1.00;-1.00;18470;296;7506016;-33
2023/03/20 00:26:27;;;;;;;18.50;11.20;;;;;;;-128.00;-1.00;-1.00;18478;296;7504508;-31
2023/03/20 00:28:52;;;;;;;25.20;11.20;;;;;;;-128.00;-1.00;-1.00;18457;296;7506027;-31
2023/03/20 00:31:26;;;;;;;29.70;17.10;;;;;;;-128.00;-1.00;-1.00;18493;288;7504770;-31
2023/03/20 00:33:53;;;;;;;23.50;14.20;;;;;;;-128.00;-1.00;-1.00;18482;284;7504621;-30
2023/03/20 00:36:19;;;;;;;20.90;12.30;;;;;;;-128.00;-1.00;-1.00;18457;304;7506232;-30
2023/03/20 00:38:45;;;;;;;27.40;17.60;;;;;;;-128.00;-1.00;-1.00;18494;284;7504588;-30
2023/03/20 00:41:24;;;;;;;33.40;16.30;;;;;;;-128.00;-1.00;-1.00;18472;288;7505104;-33
2023/03/20 00:43:52;;;;;;;29.10;15.50;;;;;;;-128.00;-1.00;-1.00;18471;284;7505339;-30
2023/03/20 00:46:18;;;;;;;42.40;16.90;;;;;;;-128.00;-1.00;-1.00;18453;296;7506563;-30
2023/03/20 00:48:43;;;;;;;37.80;17.40;;;;;;;-128.00;-1.00;-1.00;18474;348;7504374;-30
2023/03/20 00:51:10;;;;;;;31.80;15.60;;;;;;;-128.00;-1.00;-1.00;18495;348;7504407;-33
2023/03/20 00:53:36;;;;;;;31.30;16.80;;;;;;;-128.00;-1.00;-1.00;18462;337;7504392;-30
2023/03/20 00:56:02;;;;;;;29.60;15.30;;;;;;;-128.00;-1.00;-1.00;18451;296;7505036;-34
2023/03/20 00:58:28;;;;;;;35.50;18.30;;;;;;;-128.00;-1.00;-1.00;18469;296;7504525;-34
2023/03/20 01:00:53;;;;;;;49.00;18.80;;;;;;;-128.00;-1.00;-1.00;18500;288;7506263;-34
2023/03/20 01:03:21;;;;;;;44.80;18.30;;;;;;;-128.00;-1.00;-1.00;18505;288;7504191;-34
2023/03/20 01:05:47;;;;;;;34.60;16.00;;;;;;;-128.00;-1.00;-1.00;18473;296;7504543;-33
2023/03/20 01:08:15;;;;;;;32.70;18.20;;;;;;;-128.00;-1.00;-1.00;18460;296;7504829;-33
2023/03/20 01:10:41;;;;;;;31.80;16.20;;;;;;;-128.00;-1.00;-1.00;18460;296;7504277;-33
2023/03/20 01:13:14;;;;;;;41.80;18.70;;;;;;;-128.00;-1.00;-1.00;18490;288;7506109;-30
2023/03/20 01:15:40;;;;;;;31.70;17.70;;;;;;;-128.00;-1.00;-1.00;18482;296;7505961;-30
2023/03/20 01:18:09;;;;;;;34.80;19.10;;;;;;;-128.00;-1.00;-1.00;18481;300;7504751;-31
2023/03/20 01:20:35;;;;;;;35.00;18.50;;;;;;;-128.00;-1.00;-1.00;18493;288;7505098;-33
2023/03/20 01:23:00;;;;;;;48.60;20.60;;;;;;;-128.00;-1.00;-1.00;18508;288;7504501;-33
2023/03/20 01:25:26;;;;;;;44.30;21.40;;;;;;;-128.00;-1.00;-1.00;18888;296;7504645;-29
2023/03/20 01:27:53;;;;;;;37.90;21.70;;;;;;;-128.00;-1.00;-1.00;18860;284;7504328;-32
2023/03/20 01:30:22;;;;;;;43.60;22.20;;;;;;;-128.00;-1.00;-1.00;18856;320;7504387;-28
2023/03/20 01:32:48;;;;;;;45.80;22.50;;;;;;;-128.00;-1.00;-1.00;18463;296;7504400;-29
2023/03/20 01:35:15;;;;;;;39.40;19.40;;;;;;;-128.00;-1.00;-1.00;18469;296;7506059;-29
2023/03/20 01:37:41;;;;;;;45.70;23.10;;;;;;;-128.00;-1.00;-1.00;18434;348;7505237;-31
2023/03/20 01:40:12;;;;;;;42.30;21.10;;;;;;;-128.00;-1.00;-1.00;18474;288;7504644;-34
2023/03/20 01:42:38;;;;;;;53.40;23.40;;;;;;;-128.00;-1.00;-1.00;18466;288;7504667;-34
2023/03/20 01:45:17;;;;;;;39.50;20.90;;;;;;;-128.00;-1.00;-1.00;18473;296;7506057;-34
2023/03/20 01:47:42;;;;;;;50.00;23.30;;;;;;;-128.00;-1.00;-1.00;18501;288;7504276;-29
2023/03/20 01:50:27;;;;;;;48.80;21.60;;;;;;;-128.00;-1.00;-1.00;18461;296;7505587;-33
2023/03/20 01:53:06;;;;;;;46.30;20.70;;;;;;;-128.00;-1.00;-1.00;18454;296;7506279;-33
2023/03/20 01:55:32;;;;;;;44.00;20.70;;;;;;;-128.00;-1.00;-1.00;18457;316;7505808;-33
2023/03/20 01:57:59;;;;;;;56.30;23.20;;;;;;;-128.00;-1.00;-1.00;18455;284;7504584;-30
2023/03/20 02:00:25;;;;;;;44.50;22.60;;;;;;;-128.00;-1.00;-1.00;18444;284;7504770;-30
2023/03/20 02:02:51;;;;;;;51.30;23.20;;;;;;;-128.00;-1.00;-1.00;18893;288;7505433;-34
2023/03/20 02:05:18;;;;;;;54.20;24.40;;;;;;;-128.00;-1.00;-1.00;18877;296;7504416;-34
2023/03/20 02:07:46;;;;;;;50.80;25.50;;;;;;;-128.00;-1.00;-1.00;18477;296;7506616;-34
2023/03/20 02:10:13;;;;;;;38.90;19.70;;;;;;;-128.00;-1.00;-1.00;18466;297;7505154;-33
2023/03/20 02:12:39;;;;;;;42.70;21.10;;;;;;;-128.00;-1.00;-1.00;18465;296;7504409;-30
2023/03/20 02:15:05;;;;;;;54.00;23.10;;;;;;;-128.00;-1.00;-1.00;18487;296;7504834;-31
2023/03/20 02:17:32;;;;;;;49.00;22.40;;;;;;;-128.00;-1.00;-1.00;18505;349;7506604;-33
2023/03/20 02:20:12;;;;;;;42.80;21.10;;;;;;;-128.00;-1.00;-1.00;18494;348;7505629;-29
2023/03/20 02:23:02;;;;;;;39.20;16.10;;;;;;;-128.00;-1.00;-1.00;18471;337;7505815;-30
2023/03/20 02:25:59;;;;;;;43.40;20.60;;;;;;;-128.00;-1.00;-1.00;18486;296;7504658;-34
2023/03/20 02:28:49;;;;;;;47.60;23.90;;;;;;;-128.00;-1.00;-1.00;18487;296;7504920;-31
2023/03/20 02:31:41;;;;;;;48.20;22.00;;;;;;;-128.00;-1.00;-1.00;18471;296;7504859;-32
2023/03/20 02:34:30;;;;;;;34.80;19.10;;;;;;;-128.00;-1.00;-1.00;18470;288;7504337;-30
2023/03/20 02:37:20;;;;;;;45.50;23.00;;;;;;;-128.00;-1.00;-1.00;18481;296;7504876;-30
2023/03/20 02:39:56;;;;;;;47.90;23.90;;;;;;;-128.00;-1.00;-1.00;18481;296;7505933;-34
2023/03/20 02:42:36;;;;;;;41.30;22.60;;;;;;;-128.00;-1.00;-1.00;18484;296;7506187;-31
2023/03/20 02:45:17;;;;;;;51.60;22.90;;;;;;;-128.00;-1.00;-1.00;18489;296;7504423;-34
2023/03/20 02:47:48;;;;;;;41.20;21.70;;;;;;;-128.00;-1.00;-1.00;18487;288;7504831;-34
2023/03/20 02:50:37;;;;;;;45.10;23.10;;;;;;;-128.00;-1.00;-1.00;18508;288;7506998;-34
2023/03/20 02:53:28;;;;;;;36.00;22.80;;;;;;;-128.00;-1.00;-1.00;18477;296;7506273;-34
2023/03/20 02:56:02;;;;;;;47.40;23.70;;;;;;;-128.00;-1.00;-1.00;18464;311;7505044;-34
2023/03/20 02:58:37;;;;;;;41.70;22.30;;;;;;;-128.00;-1.00;-1.00;18480;348;7506163;-30
2023/03/20 03:01:13;;;;;;;46.60;21.80;;;;;;;-128.00;-1.00;-1.00;18462;296;7506702;-30
2023/03/20 03:03:48;;;;;;;46.30;23.30;;;;;;;-128.00;-1.00;-1.00;18487;296;7505372;-31
2023/03/20 03:06:26;;;;;;;48.60;23.90;;;;;;;-128.00;-1.00;-1.00;18481;288;7504383;-33
2023/03/20 03:08:59;;;;;;;43.60;20.70;;;;;;;-128.00;-1.00;-1.00;18501;288;7504979;-31
2023/03/20 03:11:24;;;;;;;49.30;24.60;;;;;;;-128.00;-1.00;-1.00;18477;349;7504775;-33
2023/03/20 03:13:52;;;;;;;48.10;20.10;;;;;;;-128.00;-1.00;-1.00;18466;296;7506093;-31
2023/03/20 03:16:21;;;;;;;50.90;22.80;;;;;;;-128.00;-1.00;-1.00;18501;296;7504776;-30
2023/03/20 03:18:48;;;;;;;40.50;22.90;;;;;;;-128.00;-1.00;-1.00;18476;296;7505015;-30
2023/03/20 03:21:15;;;;;;;47.20;21.00;;;;;;;-128.00;-1.00;-1.00;18450;320;7504566;-30
2023/03/20 03:23:43;;;;;;;38.10;14.20;;;;;;;-128.00;-1.00;-1.00;18483;296;7506498;-29
2023/03/20 03:26:12;;;;;;;37.80;18.40;;;;;;;-128.00;-1.00;-1.00;18497;288;7504114;-34
2023/03/20 03:28:43;;;;;;;35.40;18.00;;;;;;;-128.00;-1.00;-1.00;18458;284;7504832;-30
2023/03/20 03:31:11;;;;;;;33.80;17.00;;;;;;;-128.00;-1.00;-1.00;18463;284;7505312;-34
2023/03/20 03:33:42;;;;;;;45.00;22.40;;;;;;;-128.00;-1.00;-1.00;18483;288;7504489;-33
2023/03/20 03:36:31;;;;;;;25.80;12.90;;;;;;;-128.00;-1.00;-1.00;18481;296;7506001;-30
2023/03/20 03:39:06;;;;;;;37.50;21.80;;;;;;;-128.00;-1.00;-1.00;18476;296;7504093;-34
2023/03/20 03:41:38;;;;;;;41.60;22.20;;;;;;;-128.00;-1.00;-1.00;18450;309;7506459;-34
2023/03/20 03:44:18;;;;;;;40.30;22.10;;;;;;;-128.00;-1.00;-1.00;18479;284;7504689;-31
2023/03/20 03:46:51;;;;;;;37.50;20.70;;;;;;;-128.00;-1.00;-1.00;18495;345;7506220;-31
2023/03/20 03:49:23;;;;;;;51.00;24.90;;;;;;;-128.00;-1.00;-1.00;18473;296;7504827;-35
2023/03/20 03:51:49;;;;;;;35.60;18.30;;;;;;;-128.00;-1.00;-1.00;18491;296;7504562;-32
2023/03/20 03:54:31;;;;;;;39.50;18.40;;;;;;;-128.00;-1.00;-1.00;18461;298;7504298;-35
2023/03/20 03:56:57;;;;;;;30.00;16.20;;;;;;;-128.00;-1.00;-1.00;18459;288;7505842;-35
2023/03/20 03:59:28;;;;;;;42.90;23.60;;;;;;;-128.00;-1.00;-1.00;18452;288;7504685;-36
2023/03/20 04:01:53;;;;;;;50.40;23.20;;;;;;;-128.00;-1.00;-1.00;18484;296;7504435;-36
2023/03/20 04:04:20;;;;;;;46.00;22.60;;;;;;;-128.00;-1.00;-1.00;18832;318;7504702;-35
2023/03/20 04:06:46;;;;;;;41.70;23.20;;;;;;;-128.00;-1.00;-1.00;18458;288;7506047;-36
2023/03/20 04:09:11;;;;;;;48.70;25.80;;;;;;;-128.00;-1.00;-1.00;18498;348;7504577;-37
2023/03/20 04:11:37;;;;;;;43.60;25.00;;;;;;;-128.00;-1.00;-1.00;18876;312;7504368;-33
2023/03/20 04:14:04;;;;;;;47.50;26.20;;;;;;;-128.00;-1.00;-1.00;18883;296;7505262;-37
2023/03/20 04:16:30;;;;;;;49.30;27.50;;;;;;;-128.00;-1.00;-1.00;18894;320;7504826;-37
2023/03/20 04:18:56;;;;;;;46.70;25.80;;;;;;;-128.00;-1.00;-1.00;18868;298;7505429;-36
2023/03/20 04:21:22;;;;;;;50.70;25.80;;;;;;;-128.00;-1.00;-1.00;18881;337;7504584;-34
2023/03/20 04:23:48;;;;;;;47.50;24.90;;;;;;;-128.00;-1.00;-1.00;18870;288;7504813;-33
2023/03/20 04:26:14;;;;;;;44.90;24.20;;;;;;;-128.00;-1.00;-1.00;18850;298;7505214;-36
2023/03/20 04:28:40;;;;;;;49.90;25.00;;;;;;;-128.00;-1.00;-1.00;18874;288;7506251;-36
2023/03/20 04:31:07;;;;;;;48.00;25.30;;;;;;;-128.00;-1.00;-1.00;18879;297;7504559;-36
2023/03/20 04:33:33;;;;;;;46.10;21.10;;;;;;;-128.00;-1.00;-1.00;18912;296;7504419;-36
2023/03/20 04:35:59;;;;;;;50.40;28.40;;;;;;;-128.00;-1.00;-1.00;18896;288;7504998;-36
2023/03/20 05:14:59;;;;;;;51.10;29.10;;;;;;;-101.31;19.20;19874.58;19573;318;8046008;-35
2023/03/20 05:17:25;;;;;;;69.70;33.80;;;;;;;-128.00;-1.00;-1.00;18545;289;7504458;-33
2023/03/20 05:19:51;;;;;;;56.40;26.50;;;;;;;-128.00;-1.00;-1.00;18859;285;7504946;-33
2023/03/20 05:22:17;;;;;;;51.50;24.50;;;;;;;-128.00;-1.00;-1.00;18879;308;7505010;-37
2023/03/20 05:24:44;;;;;;;66.40;32.30;;;;;;;-128.00;-1.00;-1.00;18870;295;7504145;-36
2023/03/20 05:27:10;;;;;;;54.70;27.40;;;;;;;-128.00;-1.00;-1.00;18864;295;7505605;-35
2023/03/20 05:29:36;;;;;;;55.00;27.40;;;;;;;-128.00;-1.00;-1.00;18888;288;7504952;-36
2023/03/20 05:32:03;;;;;;;64.70;30.20;;;;;;;-128.00;-1.00;-1.00;18873;305;7504558;-35
2023/03/20 05:34:29;;;;;;;51.40;28.30;;;;;;;-128.00;-1.00;-1.00;18895;295;7504216;-34
2023/03/20 05:36:55;;;;;;;57.30;29.50;;;;;;;-128.00;-1.00;-1.00;18893;295;7504332;-36
2023/03/20 05:39:21;;;;;;;54.30;27.30;;;;;;;-128.00;-1.00;-1.00;18868;295;7504237;-34
2023/03/20 05:41:48;;;;;;;41.20;26.60;;;;;;;-128.00;-1.00;-1.00;18875;295;7504511;-36
2023/03/20 05:44:14;;;;;;;52.30;30.10;;;;;;;-128.00;-1.00;-1.00;18874;348;7504943;-33
2023/03/20 05:46:40;;;;;;;40.20;21.60;;;;;;;-128.00;-1.00;-1.00;18880;288;7504622;-34
2023/03/20 05:49:07;;;;;;;55.40;32.40;;;;;;;-128.00;-1.00;-1.00;18902;295;7505093;-34
2023/03/20 05:51:33;;;;;;;65.00;32.80;;;;;;;-128.00;-1.00;-1.00;18899;288;7504079;-36
2023/03/20 05:53:59;;;;;;;47.70;28.50;;;;;;;-128.00;-1.00;-1.00;18883;288;7504924;-34
2023/03/20 05:56:25;;;;;;;49.90;27.80;;;;;;;-128.00;-1.00;-1.00;18880;288;7504653;-34
2023/03/20 05:58:51;;;;;;;50.60;28.60;;;;;;;-128.00;-1.00;-1.00;18883;288;7505474;-36
2023/03/20 06:01:20;;;;;;;46.40;30.00;;;;;;;-128.00;-1.00;-1.00;18874;295;7504771;-36
2023/03/20 06:03:49;;;;;;;37.20;26.10;;;;;;;-128.00;-1.00;-1.00;18464;308;7505235;-35
2023/03/20 06:06:15;;;;;;;43.10;26.80;;;;;;;-128.00;-1.00;-1.00;18462;288;7505772;-33
2023/03/20 06:08:41;;;;;;;54.70;29.00;;;;;;;-128.00;-1.00;-1.00;18481;295;7505053;-36
2023/03/20 06:11:07;;;;;;;40.90;18.70;;;;;;;-128.00;-1.00;-1.00;18477;288;7504642;-35
2023/03/20 06:13:33;;;;;;;45.20;26.10;;;;;;;-128.00;-1.00;-1.00;18470;296;7504272;-36
2023/03/20 06:15:59;;;;;;;53.70;27.90;;;;;;;-128.00;-1.00;-1.00;18450;288;7504600;-33
2023/03/20 06:18:25;;;;;;;40.70;26.60;;;;;;;-128.00;-1.00;-1.00;18486;288;7504787;-35
2023/03/20 06:20:52;;;;;;;52.90;25.60;;;;;;;-128.00;-1.00;-1.00;18472;348;7504436;-35
2023/03/20 06:23:18;;;;;;;44.50;25.80;;;;;;;-128.00;-1.00;-1.00;18453;348;7505542;-34
2023/03/20 06:25:44;;;;;;;46.30;29.20;;;;;;;-128.00;-1.00;-1.00;18458;297;7504860;-35
2023/03/20 06:28:09;;;;;;;45.30;24.00;;;;;;;-128.00;-1.00;-1.00;18467;288;7506226;-34
2023/03/20 06:30:36;;;;;;;34.40;24.00;;;;;;;-128.00;-1.00;-1.00;18471;284;7504861;-36
2023/03/20 06:33:02;;;;;;;38.40;25.90;;;;;;;-128.00;-1.00;-1.00;18488;288;7504881;-36
2023/03/20 06:35:30;;;;;;;40.40;23.60;;;;;;;-128.00;-1.00;-1.00;18480;348;7505203;-33
2023/03/20 06:37:56;;;;;;;42.00;24.90;;;;;;;-128.00;-1.00;-1.00;18475;296;7504429;-33
2023/03/20 06:40:22;;;;;;;44.10;26.70;;;;;;;-128.00;-1.00;-1.00;18476;296;7504547;-33
2023/03/20 06:42:48;;;;;;;43.20;21.30;;;;;;;-128.00;-1.00;-1.00;18446;296;7505567;-32
2023/03/20 06:45:14;;;;;;;40.00;25.60;;;;;;;-128.00;-1.00;-1.00;18469;296;7505831;-33
2023/03/20 06:47:40;;;;;;;40.10;27.00;;;;;;;-128.00;-1.00;-1.00;18465;331;7504941;-35
2023/03/20 06:50:06;;;;;;;41.30;25.10;;;;;;;-128.00;-1.00;-1.00;18442;348;7504592;-35
2023/03/20 06:52:32;;;;;;;40.50;24.90;;;;;;;-128.00;-1.00;-1.00;18495;288;7504220;-35
2023/03/20 06:54:58;;;;;;;39.90;22.80;;;;;;;-128.00;-1.00;-1.00;18483;288;7505078;-33
2023/03/20 06:57:23;;;;;;;42.50;24.90;;;;;;;-128.00;-1.00;-1.00;18499;284;7504937;-35
2023/03/20 06:59:50;;;;;;;36.10;25.40;;;;;;;-128.00;-1.00;-1.00;18902;337;7507055;-37
2023/03/20 07:02:16;;;;;;;42.20;29.10;;;;;;;-128.00;-1.00;-1.00;18867;288;7504804;-35
2023/03/20 07:04:42;;;;;;;36.70;23.70;;;;;;;-128.00;-1.00;-1.00;18464;288;7504671;-35
2023/03/20 07:07:08;;;;;;;29.50;21.60;;;;;;;-128.00;-1.00;-1.00;18490;288;7506624;-33
2023/03/20 07:09:34;;;;;;;32.40;20.90;;;;;;;-128.00;-1.00;-1.00;18469;308;7504488;-33
2023/03/20 07:12:01;;;;;;;34.70;22.30;;;;;;;-128.00;-1.00;-1.00;18470;296;7504972;-33
2023/03/20 07:14:26;;;;;;;31.90;22.70;;;;;;;-128.00;-1.00;-1.00;18509;288;7506804;-33
2023/03/20 07:16:53;;;;;;;47.10;23.40;;;;;;;-128.00;-1.00;-1.00;18474;284;7504462;-36
2023/03/20 07:19:19;;;;;;;31.90;23.10;;;;;;;-128.00;-1.00;-1.00;18483;296;7506267;-33
2023/03/20 07:21:45;;;;;;;35.80;22.00;;;;;;;-128.00;-1.00;-1.00;18475;297;7504775;-36
2023/03/20 07:24:10;;;;;;;36.00;22.30;;;;;;;-128.00;-1.00;-1.00;18501;288;7504624;-33
2023/03/20 07:26:37;;;;;;;36.50;22.50;;;;;;;-128.00;-1.00;-1.00;18446;296;7506110;-35
2023/03/20 07:29:03;;;;;;;35.00;22.50;;;;;;;-128.00;-1.00;-1.00;18465;300;7506038;-35
2023/03/20 07:31:29;;;;;;;37.70;22.80;;;;;;;-128.00;-1.00;-1.00;18478;348;7506053;-36
2023/03/20 07:33:55;;;;;;;46.10;26.60;;;;;;;-128.00;-1.00;-1.00;18493;296;7506216;-36
2023/03/20 07:36:21;;;;;;;40.90;23.80;;;;;;;-128.00;-1.00;-1.00;18471;288;7506394;-34
2023/03/20 07:38:47;;;;;;;35.70;24.40;;;;;;;-128.00;-1.00;-1.00;18497;288;7504866;-34
2023/03/20 07:41:12;;;;;;;34.60;22.80;;;;;;;-128.00;-1.00;-1.00;18498;288;7504522;-34
2023/03/20 07:43:38;;;;;;;25.90;15.80;;;;;;;-128.00;-1.00;-1.00;18474;296;7505590;-36
2023/03/20 07:46:05;;;;;;;32.80;21.20;;;;;;;-128.00;-1.00;-1.00;18461;297;7504228;-34
2023/03/20 07:48:31;;;;;;;38.10;20.70;;;;;;;-128.00;-1.00;-1.00;18489;296;7504836;-36
2023/03/20 07:50:57;;;;;;;34.40;22.20;;;;;;;-128.00;-1.00;-1.00;18471;296;7505162;-32
2023/03/20 07:53:23;;;;;;;39.50;24.00;;;;;;;-128.00;-1.00;-1.00;18876;311;7504525;-34
2023/03/20 07:55:49;;;;;;;30.20;19.40;;;;;;;-128.00;-1.00;-1.00;18893;284;7504264;-35
2023/03/20 07:58:16;;;;;;;27.50;17.40;;;;;;;-128.00;-1.00;-1.00;18873;296;7504933;-36
2023/03/20 08:00:42;;;;;;;30.30;17.20;;;;;;;-128.00;-1.00;-1.00;18862;288;7504525;-37
2023/03/20 08:03:08;;;;;;;52.00;22.10;;;;;;;-128.00;-1.00;-1.00;18465;347;7505812;-34
2023/03/20 08:05:34;;;;;;;14.80;9.20;;;;;;;-128.00;-1.00;-1.00;18456;296;7505452;-34
2023/03/20 08:08:00;;;;;;;27.20;15.70;;;;;;;-128.00;-1.00;-1.00;18451;297;7505276;-34
2023/03/20 08:10:27;;;;;;;29.70;18.90;;;;;;;-128.00;-1.00;-1.00;18860;288;7504341;-33
2023/03/20 08:12:53;;;;;;;34.50;20.30;;;;;;;-128.00;-1.00;-1.00;18893;288;7505087;-34
2023/03/20 08:15:19;;;;;;;30.20;21.30;;;;;;;-128.00;-1.00;-1.00;18463;296;7505994;-33
2023/03/20 08:17:44;;;;;;;23.50;18.30;;;;;;;-128.00;-1.00;-1.00;18458;296;7504430;-35
2023/03/20 08:20:13;;;;;;;33.10;19.00;;;;;;;-128.00;-1.00;-1.00;18455;348;7504605;-33
2023/03/20 08:22:39;;;;;;;22.60;14.70;;;;;;;-128.00;-1.00;-1.00;18481;288;7504745;-35
2023/03/20 08:25:07;;;;;;;26.60;12.20;;;;;;;-128.00;-1.00;-1.00;18479;296;7504524;-35
2023/03/20 08:27:33;;;;;;;31.00;20.60;;;;;;;-128.00;-1.00;-1.00;18482;288;7505925;-34
2023/03/20 08:29:59;;;;;;;32.10;16.80;;;;;;;-128.00;-1.00;-1.00;18455;348;7506288;-32
2023/03/20 08:32:25;;;;;;;21.20;14.40;;;;;;;-128.00;-1.00;-1.00;18863;296;7505501;-36
2023/03/20 08:40:57;;;;;;;27.30;17.80;;;;;;;;;;100806;300;543283;-34
2023/03/20 08:43:22;;;;;;;22.50;15.30;;;;;;;;;;101255;301;23014;-34
2023/03/20 08:45:48;;;;;;;9.30;5.60;;;;;;;;;;100971;303;22580;-32
2023/03/20 08:48:13;;;;;;;25.30;17.80;;;;;;;;;;101052;302;22591;-34
2023/03/20 08:50:39;;;;;;;25.80;17.20;;;;;;;;;;101173;302;22584;-32
2023/03/20 08:53:05;;;;;;;29.10;18.00;;;;;;;;;;101060;302;22813;-32
2023/03/20 08:55:31;;;;;;;25.10;18.30;;;;;;;;;;100887;301;423176;-33
2023/03/20 08:57:56;;;;;;;20.20;12.80;;;;;;;;;;101123;300;22884;-33
2023/03/20 09:00:22;;;;;;;26.10;18.20;;;;;;;;;;101070;301;24116;-32
2023/03/20 09:02:48;;;;;;;22.60;12.90;;;;;;;;;;101287;300;23013;-36
2023/03/20 09:05:13;;;;;;;25.50;19.60;;;;;;;;;;101159;289;24190;-31
2023/03/20 09:07:39;;;;;;;24.30;18.60;;;;;;;;;;101231;300;23040;-31
2023/03/20 09:10:04;;;;;;;22.40;18.40;;;;;;;;;;101178;298;22613;-31
2023/03/20 09:12:31;;;;;;;24.60;18.90;;;;;;;;;;101183;299;22582;-34
2023/03/20 09:14:57;;;;;;;27.60;18.00;;;;;;;;;;101189;298;22579;-34
2023/03/20 09:17:22;;;;;;;27.60;19.40;;;;;;;;;;101357;298;22889;-34
2023/03/20 09:19:49;;;;;;;21.90;14.20;;;;;;;;;;101386;298;22886;-34
2023/03/20 09:22:17;;;;;;;28.30;18.60;;;;;;;;;;101286;298;24078;-36
2023/03/20 09:24:43;;;;;;;26.40;17.50;;;;;;;;;;101310;298;23069;-36
2023/03/20 09:27:08;;;;;;;44.40;15.00;;;;;;;;;;101253;298;22675;-33
2023/03/20 09:29:49;;;;;;;24.40;17.90;;;;;;;;;;101219;299;22886;-31
2023/03/20 09:32:15;;;;;;;31.00;18.30;;;;;;;;;;101334;299;22998;-35
2023/03/20 09:34:40;;;;;;;24.60;16.50;;;;;;;;;;101272;299;22578;-34
2023/03/20 09:37:06;;;;;;;28.90;18.50;;;;;;;;;;101227;299;22602;-34
2023/03/20 09:39:32;;;;;;;38.80;22.50;;;;;;;;;;101253;298;22889;-31
2023/03/20 09:41:59;;;;;;;20.30;10.10;;;;;;;;;;101199;288;22588;-31
2023/03/20 09:44:36;;;;;;;18.30;12.50;;;;;;;;;;101259;298;23013;-34
2023/03/20 09:47:08;;;;;;;33.20;21.40;;;;;;;;;;101132;288;22797;-36
2023/03/20 09:49:37;;;;;;;31.10;17.90;;;;;;;;;;101274;298;22888;-34
2023/03/20 09:52:11;;;;;;;50.60;20.30;;;;;;;;;;101180;299;22888;-32
2023/03/20 09:54:41;;;;;;;40.60;17.90;;;;;;;;;;101278;288;22849;-37
2023/03/20 09:57:09;;;;;;;31.00;18.90;;;;;;;;;;101355;287;23163;-31
2023/03/20 09:59:35;;;;;;;16.10;11.60;;;;;;;;;;101326;299;22671;-34
2023/03/20 10:02:05;;;;;;;23.20;15.00;;;;;;;;;;101221;299;22677;-31
2023/03/20 10:04:31;;;;;;;43.70;24.70;;;;;;;;;;101185;287;22667;-35
2023/03/20 10:06:56;;;;;;;35.20;15.70;;;;;;;;;;101279;287;22887;-34
2023/03/20 10:09:23;;;;;;;28.30;14.20;;;;;;;;;;101319;287;23037;-34
2023/03/20 10:11:53;;;;;;;24.60;11.30;;;;;;;;;;101360;287;22665;-35
2023/03/20 10:14:23;;;;;;;28.00;18.20;;;;;;;;;;101175;288;22596;-33
2023/03/20 10:17:02;;;;;;;14.50;8.30;;;;;;;;;;101285;287;22889;-31
2023/03/20 10:19:28;;;;;;;28.90;20.70;;;;;;;;;;101227;299;24267;-31
2023/03/20 10:21:56;;;;;;;30.20;16.60;;;;;;;;;;101216;287;22702;-34
2023/03/20 10:24:26;;;;;;;27.40;14.80;;;;;;;;;;101375;287;22737;-32
2023/03/20 10:26:51;;;;;;;40.10;17.20;;;;;;;;;;101219;300;22582;-36
2023/03/20 10:29:22;;;;;;;11.80;9.70;;;;;;;;;;101224;300;22582;-33
2023/03/20 10:31:55;;;;;;;16.70;11.30;;;;;;;;;;101198;287;22676;-32
2023/03/20 10:34:37;;;;;;;43.20;24.10;;;;;;;;;;101203;288;23016;-36
2023/03/20 10:37:15;;;;;;;25.40;14.80;;;;;;;;;;101083;300;22885;-34
2023/03/20 10:39:52;;;;;;;18.20;14.30;;;;;;;;;;101107;300;23128;-36
2023/03/20 10:42:21;;;;;;;13.60;7.20;;;;;;;;;;101236;300;22684;-31
2023/03/20 10:44:59;;;;;;;15.50;11.80;;;;;;;;;;101262;299;24246;-32
2023/03/20 10:47:25;;;;;;;18.00;12.90;;;;;;;;;;101287;299;22988;-37
2023/03/20 10:49:53;;;;;;;18.10;11.20;;;;;;;;;;101180;299;22639;-29
2023/03/20 10:52:19;;;;;;;22.10;15.70;;;;;;;;;;101257;299;24153;-35
2023/03/20 10:54:49;;;;;;;13.80;9.10;;;;;;;;;;101339;299;22619;-35
2023/03/20 10:57:26;;;;;;;20.90;16.10;;;;;;;;;;101211;287;23017;-31
2023/03/20 10:59:53;;;;;;;15.10;9.50;;;;;;;;;;101205;288;23011;-32
2023/03/20 11:02:20;;;;;;;22.80;15.00;;;;;;;;;;101257;299;22587;-33
2023/03/20 11:44:29;;;;;;;29.10;17.00;;;;;;;-100.35;19.20;19880.66;19551;297;8045887;-33
2023/03/20 11:47:11;;;;;;;15.40;12.60;;;;;;;-128.00;-1.00;-1.00;18197;297;7504779;-33
2023/03/20 11:49:55;;;;;;;30.70;11.30;;;;;;;-128.00;-1.00;-1.00;18433;299;7505005;-33
2023/03/20 11:52:24;;;;;;;36.10;17.30;;;;;;;-128.00;-1.00;-1.00;18453;298;7504278;-32
2023/03/20 11:54:52;;;;;;;30.20;17.40;;;;;;;-128.00;-1.00;-1.00;18446;338;7504918;-35
2023/03/20 11:57:32;;;;;;;21.30;14.20;;;;;;;-128.00;-1.00;-1.00;18456;299;7506403;-35
2023/03/20 12:00:04;;;;;;;23.80;13.20;;;;;;;-128.00;-1.00;-1.00;18449;322;7504591;-31
2023/03/20 12:02:30;;;;;;;23.60;11.40;;;;;;;-128.00;-1.00;-1.00;18474;298;7504649;-32
2023/03/20 12:04:59;;;;;;;17.60;12.10;;;;;;;-128.00;-1.00;-1.00;18458;298;7506077;-32
2023/03/20 12:07:31;;;;;;;18.40;13.10;;;;;;;-128.00;-1.00;-1.00;18472;298;7505060;-33
2023/03/20 12:10:03;;;;;;;14.70;12.00;;;;;;;-128.00;-1.00;-1.00;18460;322;7507425;-33
2023/03/20 12:12:41;;;;;;;;;;;;;;;-128.00;-1.00;-1.00;18432;288;7505961;-32
2023/03/20 12:15:26;;;;;;;16.40;12.80;;;;;;;-128.00;-1.00;-1.00;18450;298;7506092;-32
2023/03/20 12:18:08;;;;;;;15.50;10.80;;;;;;;-128.00;-1.00;-1.00;18467;298;7504561;-35
2023/03/20 12:20:44;;;;;;;21.90;12.60;;;;;;;-128.00;-1.00;-1.00;18463;301;7504597;-35
2023/03/20 12:23:20;;;;;;;15.30;10.90;;;;;;;-128.00;-1.00;-1.00;18435;298;7505998;-32
2023/03/20 12:26:06;;;;;;;13.40;9.50;;;;;;;-128.00;-1.00;-1.00;18474;298;7505390;-36
2023/03/20 12:28:40;;;;;;;12.00;10.80;;;;;;;-128.00;-1.00;-1.00;18458;298;7504703;-35
2023/03/20 12:31:29;;;;;;;15.30;9.70;;;;;;;-128.00;-1.00;-1.00;18476;310;7506380;-36
2023/03/20 12:34:10;;;;;;;12.40;8.30;;;;;;;-128.00;-1.00;-1.00;18449;286;7506300;-36
2023/03/20 12:36:38;;;;;;;11.80;9.30;;;;;;;-128.00;-1.00;-1.00;18471;298;7505279;-31
2023/03/20 12:39:05;;;;;;;15.80;11.20;;;;;;;-128.00;-1.00;-1.00;18454;306;7504634;-31
2023/03/20 12:41:39;;;;;;;15.30;10.60;;;;;;;-128.00;-1.00;-1.00;18469;298;7506275;-35
2023/03/20 12:44:26;;;;;;;15.30;10.40;;;;;;;-128.00;-1.00;-1.00;18434;299;7504894;-32
2023/03/20 12:47:11;;;;;;;16.60;11.10;;;;;;;-128.00;-1.00;-1.00;18463;302;7504606;-35
2023/03/20 12:49:59;;;;;;;15.40;9.90;;;;;;;-128.00;-1.00;-1.00;18464;298;7505843;-36
2023/03/20 12:52:44;;;;;;;12.50;10.50;;;;;;;-128.00;-1.00;-1.00;18497;350;7504552;-32
2023/03/20 12:55:28;;;;;;;11.70;7.30;;;;;;;-128.00;-1.00;-1.00;18456;299;7505920;-34
2023/03/20 12:58:00;;;;;;;19.50;11.50;;;;;;;-128.00;-1.00;-1.00;18442;299;7506520;-35
2023/03/20 13:00:34;;;;;;;13.90;7.90;;;;;;;-128.00;-1.00;-1.00;18441;298;7504910;-36
2023/03/20 13:03:10;;;;;;;15.40;10.40;;;;;;;-128.00;-1.00;-1.00;18471;298;7504332;-36
2023/03/20 13:05:51;;;;;;;8.80;6.10;;;;;;;-128.00;-1.00;-1.00;18424;292;7506345;-36
2023/03/20 13:08:32;;;;;;;14.00;9.30;;;;;;;-128.00;-1.00;-1.00;18490;298;7505783;-32
2023/03/20 13:11:14;;;;;;;11.70;8.70;;;;;;;-128.00;-1.00;-1.00;18476;298;7504108;-32
2023/03/20 13:13:53;;;;;;;16.70;8.00;;;;;;;-128.00;-1.00;-1.00;18498;290;7505103;-33
2023/03/20 13:16:30;;;;;;;11.00;9.20;;;;;;;-128.00;-1.00;-1.00;18463;343;7504280;-32
2023/03/20 13:19:10;;;;;;;9.60;7.70;;;;;;;-128.00;-1.00;-1.00;18429;350;7504183;-32
2023/03/20 13:21:59;;;;;;;13.30;9.30;;;;;;;-128.00;-1.00;-1.00;18472;299;7505288;-32
2023/03/20 13:24:34;;;;;;;9.90;7.60;;;;;;;-128.00;-1.00;-1.00;18488;298;7506294;-36